createdAt,value
2019-04-23T00:00:24.609Z,59.39
2019-04-23T00:01:31.941Z,59.36
2019-04-23T00:02:20.577Z,59.18
2019-04-23T00:03:23.749Z,59.80
2019-04-23T00:04:20.190Z,59.89
2019-04-23T00:05:31.775Z,59.69
2019-04-23T00:06:24.866Z,59.69
2019-04-23T00:07:26.204Z,59.36
2019-04-23T00:08:28.533Z,59.80
2019-04-23T00:09:27.681Z,59.87
2019-04-23T00:11:19.484Z,60.00
2019-04-23T00:12:30.337Z,59.89
2019-04-23T00:13:21.135Z,59.89
2019-04-23T00:14:24.013Z,60.00
2019-04-23T00:15:30.451Z,60.00
2019-04-23T00:16:21.521Z,59.69
2019-04-23T00:17:23.202Z,59.59
2019-04-23T00:18:26.613Z,59.80
2019-04-23T00:19:16.975Z,59.80
2019-04-23T00:20:20.093Z,59.69
2019-04-23T00:21:20.227Z,59.69
2019-04-23T00:22:20.657Z,59.89
2019-04-23T00:23:16.302Z,59.92
2019-04-23T00:24:28.461Z,60.13
2019-04-23T00:26:24.030Z,60.13
2019-04-23T00:27:28.819Z,60.13
2019-04-23T00:28:20.448Z,60.23
2019-04-23T00:29:19.013Z,59.92
2019-04-23T00:30:22.557Z,60.13
2019-04-23T00:31:31.756Z,59.92
2019-04-23T00:32:25.188Z,60.03
2019-04-23T00:34:17.789Z,60.13
2019-04-23T00:35:19.130Z,60.13
2019-04-23T00:36:27.159Z,60.03
2019-04-23T00:37:25.439Z,60.13
2019-04-23T00:39:16.706Z,59.92
2019-04-23T00:40:20.256Z,59.92
2019-04-23T00:41:20.836Z,60.13
2019-04-23T00:42:25.792Z,60.13
2019-04-23T00:43:22.288Z,60.13
2019-04-23T00:44:22.853Z,60.03
2019-04-23T00:45:18.087Z,60.13
2019-04-23T00:46:22.287Z,60.13
2019-04-23T00:47:25.559Z,60.05
2019-04-23T00:48:31.102Z,60.13
2019-04-23T00:49:19.838Z,60.05
2019-04-23T00:50:21.360Z,60.16
2019-04-23T00:51:18.481Z,60.26
2019-04-23T00:52:24.354Z,60.05
2019-04-23T00:54:20.724Z,60.05
2019-04-23T00:55:37.933Z,60.05
2019-04-23T00:57:24.190Z,59.85
2019-04-23T00:58:22.366Z,59.98
2019-04-23T00:59:21.799Z,59.88
2019-04-23T01:00:26.036Z,60.28
2019-04-23T01:01:18.253Z,59.78
2019-04-23T01:02:16.650Z,59.98
2019-04-23T01:03:17.167Z,59.85
2019-04-23T01:04:18.622Z,59.88
2019-04-23T01:06:21.270Z,60.05
2019-04-23T01:07:22.458Z,60.26
2019-04-23T01:08:18.470Z,60.26
2019-04-23T01:09:14.260Z,60.05
2019-04-23T01:10:25.494Z,60.19
2019-04-23T01:11:20.389Z,60.19
2019-04-23T01:12:22.950Z,59.98
2019-04-23T01:13:22.755Z,60.19
2019-04-23T01:14:23.088Z,59.88
2019-04-23T01:16:19.523Z,60.08
2019-04-23T01:17:27.959Z,60.08
2019-04-23T01:18:32.266Z,59.98
2019-04-23T01:19:27.131Z,59.98
2019-04-23T01:20:14.767Z,59.78
2019-04-23T01:20:57.528Z,60.19
2019-04-23T01:21:57.812Z,60.11
2019-04-23T01:22:57.076Z,59.88
2019-04-23T01:24:02.584Z,60.08
2019-04-23T01:25:05.833Z,60.08
2019-04-23T01:26:16.171Z,59.78
2019-04-23T01:28:23.552Z,60.19
2019-04-23T01:29:20.851Z,60.19
2019-04-23T01:30:19.859Z,60.19
2019-04-23T01:31:22.825Z,59.88
2019-04-23T01:32:27.163Z,59.70
2019-04-23T01:33:29.717Z,59.67
2019-04-23T01:34:26.106Z,59.70
2019-04-23T01:35:36.574Z,59.67
2019-04-23T01:36:36.370Z,59.67
2019-04-23T01:37:25.737Z,59.98
2019-04-23T01:38:30.969Z,59.78
2019-04-23T01:39:22.747Z,59.67
2019-04-23T01:40:27.386Z,59.50
2019-04-23T01:41:28.597Z,59.67
2019-04-23T01:42:29.077Z,59.70
2019-04-23T01:43:23.181Z,59.50
2019-04-23T01:44:32.745Z,60.01
2019-04-23T01:45:24.275Z,59.91
2019-04-23T01:46:22.039Z,60.21
2019-04-23T01:47:25.081Z,59.91
2019-04-23T01:48:22.523Z,60.21
2019-04-23T01:49:30.618Z,60.01
2019-04-23T01:51:28.804Z,60.11
2019-04-23T01:52:25.056Z,59.50
2019-04-23T01:53:26.486Z,59.70
2019-04-23T01:54:25.938Z,60.24
2019-04-23T01:56:24.419Z,60.11
2019-04-23T01:57:28.977Z,59.73
2019-04-23T01:58:36.540Z,59.30
2019-04-23T01:59:24.661Z,59.70
2019-04-23T02:01:28.192Z,59.70
2019-04-23T02:02:27.654Z,59.53
2019-04-23T02:03:22.646Z,60.14
2019-04-23T02:04:22.959Z,59.83
2019-04-23T02:06:20.512Z,59.83
2019-04-23T02:07:34.125Z,59.94
2019-04-23T02:08:20.862Z,60.03
2019-04-23T02:09:24.744Z,59.32
2019-04-23T02:10:29.771Z,60.14
2019-04-23T02:11:19.977Z,59.94
2019-04-23T02:12:27.598Z,59.22
2019-04-23T02:13:27.275Z,59.83
2019-04-23T02:14:21.335Z,59.94
2019-04-23T02:15:23.168Z,59.53
2019-04-23T02:16:29.090Z,59.32
2019-04-23T02:17:23.351Z,59.53
2019-04-23T02:18:20.578Z,59.53
2019-04-23T02:19:23.704Z,59.73
2019-04-23T02:21:27.880Z,59.73
2019-04-23T02:22:25.357Z,59.42
2019-04-23T02:23:26.592Z,59.45
2019-04-23T02:24:17.737Z,59.53
2019-04-23T02:25:31.710Z,59.35
2019-04-23T02:26:32.820Z,59.45
2019-04-23T02:27:29.535Z,59.55
2019-04-23T02:28:25.479Z,59.55
2019-04-23T02:29:36.636Z,59.45
2019-04-23T02:31:55.671Z,59.55
2019-04-23T02:32:29.654Z,59.66
2019-04-23T02:33:34.454Z,59.55
2019-04-23T02:35:46.832Z,59.76
2019-04-23T02:36:26.499Z,59.35
2019-04-23T02:37:49.278Z,59.96
2019-04-23T02:39:31.168Z,59.38
2019-04-23T02:40:44.698Z,59.66
2019-04-23T02:41:35.239Z,59.55
2019-04-23T02:44:26.495Z,59.76
2019-04-23T02:45:27.380Z,59.89
2019-04-23T02:46:16.707Z,59.76
2019-04-23T02:47:34.832Z,59.38
2019-04-23T02:49:36.013Z,59.17
2019-04-23T02:51:37.215Z,59.68
2019-04-23T02:52:31.770Z,59.38
2019-04-23T02:53:39.954Z,59.35
2019-04-23T02:55:39.384Z,58.86
2019-04-23T02:57:29.313Z,58.76
2019-04-23T02:59:58.243Z,59.48
2019-04-23T03:00:55.749Z,58.86
2019-04-23T03:05:24.941Z,59.07
2019-04-23T03:06:32.188Z,58.79
2019-04-23T03:07:32.935Z,58.48
2019-04-23T03:10:37.262Z,58.97
2019-04-23T03:12:31.741Z,58.79
2019-04-23T03:13:39.194Z,59.58
2019-04-23T03:15:39.473Z,58.86
2019-04-23T03:17:24.317Z,59.50
2019-04-23T03:20:35.063Z,58.86
2019-04-23T03:22:32.707Z,59.20
2019-04-23T03:23:34.505Z,57.76
2019-04-23T03:25:38.259Z,58.17
2019-04-23T03:26:36.881Z,58.79
2019-04-23T03:27:31.906Z,58.79
2019-04-23T03:28:38.367Z,58.38
2019-04-23T03:29:35.395Z,58.28
2019-04-23T03:30:52.600Z,58.17
2019-04-23T03:32:45.596Z,59.61
2019-04-23T03:35:10.342Z,59.00
2019-04-23T03:36:18.365Z,58.17
2019-04-23T03:37:00.314Z,59.09
2019-04-23T03:37:32.235Z,58.20
2019-04-23T03:38:41.852Z,58.38
2019-04-23T03:39:46.030Z,58.30
2019-04-23T03:40:19.534Z,58.07
2019-04-23T03:41:35.267Z,58.28
2019-04-23T03:43:37.532Z,58.07
2019-04-23T03:44:29.172Z,58.20
2019-04-23T03:45:44.396Z,58.61
2019-04-23T03:46:30.389Z,58.38
2019-04-23T03:47:34.813Z,58.30
2019-04-23T03:48:38.764Z,57.97
2019-04-23T03:49:32.275Z,58.92
2019-04-23T03:50:30.077Z,58.30
2019-04-23T03:53:32.918Z,58.40
2019-04-23T03:55:45.810Z,58.30
2019-04-23T03:56:44.862Z,58.72
2019-04-23T03:58:39.076Z,58.20
2019-04-23T03:59:36.883Z,58.40
2019-04-23T04:00:33.217Z,58.61
2019-04-23T04:01:29.803Z,57.79
2019-04-23T04:02:39.810Z,57.59
2019-04-23T04:03:50.615Z,57.48
2019-04-23T04:05:51.318Z,57.59
2019-04-23T04:06:37.692Z,57.28
2019-04-23T04:09:33.997Z,57.82
2019-04-23T04:10:30.771Z,57.61
2019-04-23T04:11:25.019Z,57.48
2019-04-23T04:12:29.515Z,57.79
2019-04-23T04:13:31.093Z,57.89
2019-04-23T04:15:43.721Z,57.89
2019-04-23T04:16:28.243Z,57.71
2019-04-23T04:18:46.238Z,57.51
2019-04-23T04:20:35.741Z,57.38
2019-04-23T04:22:37.362Z,57.38
2019-04-23T04:24:41.798Z,57.28
2019-04-23T04:26:37.909Z,57.18
2019-04-23T04:27:38.383Z,57.07
2019-04-23T04:28:39.221Z,57.18
2019-04-23T04:30:47.644Z,56.77
2019-04-23T04:31:44.670Z,57.07
2019-04-23T04:32:47.137Z,56.87
2019-04-23T04:35:09.039Z,56.67
2019-04-23T04:35:22.940Z,56.26
2019-04-23T04:36:29.750Z,56.43
2019-04-23T04:37:44.233Z,56.35
2019-04-23T04:39:26.931Z,56.26
2019-04-23T04:40:42.312Z,55.00
2019-04-23T04:42:51.616Z,55.30
2019-04-23T04:43:31.635Z,55.02
2019-04-23T04:48:46.390Z,55.51
2019-04-23T04:49:37.166Z,55.30
2019-04-23T04:50:27.808Z,54.28
2019-04-23T04:53:47.920Z,54.79
2019-04-23T04:54:26.389Z,54.79
2019-04-23T04:55:26.659Z,54.97
2019-04-23T04:56:30.287Z,54.87
2019-04-23T04:57:40.091Z,54.46
2019-04-23T04:58:32.554Z,54.46
2019-04-23T04:59:22.656Z,54.57
2019-04-23T05:00:39.940Z,54.36
2019-04-23T05:01:25.940Z,53.75
2019-04-23T05:03:29.775Z,54.25
2019-04-23T05:04:54.260Z,54.36
2019-04-23T05:05:55.323Z,54.05
2019-04-23T05:07:35.789Z,53.33
2019-04-23T05:08:29.030Z,53.85
2019-04-23T05:09:34.832Z,53.31
2019-04-23T05:10:38.631Z,53.31
2019-04-23T05:15:25.148Z,53.11
2019-04-23T05:17:32.546Z,53.52
2019-04-23T05:19:40.752Z,53.19
2019-04-23T05:20:26.084Z,53.28
2019-04-23T05:22:24.381Z,53.28
2019-04-23T05:25:17.499Z,51.65
2019-04-23T05:27:20.326Z,52.26
2019-04-23T05:28:24.567Z,52.34
2019-04-23T05:29:14.709Z,51.73
2019-04-23T05:30:28.769Z,51.73
2019-04-23T05:32:21.357Z,52.14
2019-04-23T05:33:23.784Z,51.21
2019-04-23T05:35:42.501Z,51.29
2019-04-23T05:36:29.210Z,50.89
2019-04-23T05:37:29.322Z,51.19
2019-04-23T05:40:30.694Z,50.58
2019-04-23T05:41:21.957Z,50.37
2019-04-23T05:42:22.579Z,50.66
2019-04-23T05:43:22.286Z,50.45
2019-04-23T05:44:30.741Z,51.37
2019-04-23T05:45:21.630Z,50.15
2019-04-23T05:46:29.830Z,49.63
2019-04-23T05:47:27.829Z,49.43
2019-04-23T05:49:24.898Z,49.13
2019-04-23T05:50:29.816Z,49.74
2019-04-23T05:52:24.487Z,50.12
2019-04-23T05:53:18.426Z,49.71
2019-04-23T05:54:36.806Z,49.21
2019-04-23T05:55:20.129Z,49.10
2019-04-23T05:56:21.392Z,49.21
2019-04-23T05:57:20.520Z,49.41
2019-04-23T05:58:26.763Z,49.41
2019-04-23T05:59:37.982Z,48.49
2019-04-23T06:00:28.107Z,49.71
2019-04-23T06:01:47.218Z,48.26
2019-04-23T06:02:20.754Z,48.08
2019-04-23T06:03:24.815Z,48.77
2019-04-23T06:05:25.010Z,48.14
2019-04-23T06:06:29.414Z,47.34
2019-04-23T06:07:28.783Z,47.53
2019-04-23T06:08:27.019Z,47.96
2019-04-23T06:09:18.851Z,47.53
2019-04-23T06:10:18.131Z,47.83
2019-04-23T06:11:30.533Z,47.12
2019-04-23T06:12:22.038Z,47.73
2019-04-23T06:13:21.017Z,47.32
2019-04-23T06:14:28.403Z,46.81
2019-04-23T06:15:22.006Z,47.53
2019-04-23T06:16:24.898Z,47.12
2019-04-23T06:17:33.579Z,46.69
2019-04-23T06:18:26.146Z,46.79
2019-04-23T06:19:18.207Z,46.59
2019-04-23T06:20:31.604Z,46.36
2019-04-23T06:21:32.392Z,46.79
2019-04-23T06:23:30.228Z,46.67
2019-04-23T06:24:34.977Z,46.67
2019-04-23T06:25:39.875Z,45.34
2019-04-23T06:26:33.344Z,45.65
2019-04-23T06:27:30.568Z,45.95
2019-04-23T06:28:24.152Z,46.36
2019-04-23T06:30:25.753Z,45.85
2019-04-23T06:31:22.638Z,45.83
2019-04-23T06:32:23.144Z,45.42
2019-04-23T06:33:27.359Z,46.14
2019-04-23T06:34:21.720Z,45.73
2019-04-23T06:35:22.523Z,45.12
2019-04-23T06:36:25.655Z,45.30
2019-04-23T06:37:36.057Z,45.50
2019-04-23T06:39:19.320Z,45.40
2019-04-23T06:40:25.130Z,45.40
2019-04-23T06:41:22.634Z,45.91
2019-04-23T06:42:20.719Z,45.40
2019-04-23T06:43:22.579Z,45.50
2019-04-23T06:44:37.888Z,45.48
2019-04-23T06:45:14.524Z,45.28
2019-04-23T06:46:19.808Z,45.46
2019-04-23T06:47:20.195Z,44.54
2019-04-23T06:48:40.792Z,45.06
2019-04-23T06:49:27.089Z,44.34
2019-04-23T06:50:17.677Z,44.63
2019-04-23T06:51:27.196Z,44.42
2019-04-23T06:52:23.348Z,44.73
2019-04-23T06:53:12.553Z,44.12
2019-04-23T06:54:36.487Z,43.51
2019-04-23T06:55:26.929Z,44.22
2019-04-23T06:56:24.698Z,44.42
2019-04-23T06:58:28.935Z,43.69
2019-04-23T06:59:24.531Z,43.79
2019-04-23T07:00:23.943Z,44.51
2019-04-23T07:01:19.243Z,44.20
2019-04-23T07:02:20.669Z,43.77
2019-04-23T07:03:26.405Z,43.37
2019-04-23T07:05:28.019Z,42.66
2019-04-23T07:06:23.639Z,43.16
2019-04-23T07:08:23.875Z,42.54
2019-04-23T07:09:13.796Z,43.14
2019-04-23T07:10:18.710Z,42.63
2019-04-23T07:12:22.004Z,42.72
2019-04-23T07:13:21.224Z,42.72
2019-04-23T07:14:12.462Z,43.02
2019-04-23T07:15:33.829Z,42.11
2019-04-23T07:17:16.746Z,42.00
2019-04-23T07:18:18.200Z,41.88
2019-04-23T07:19:26.926Z,42.90
2019-04-23T07:20:21.271Z,42.60
2019-04-23T07:23:29.977Z,41.38
2019-04-23T07:24:15.159Z,41.88
2019-04-23T07:25:20.515Z,41.05
2019-04-23T07:26:29.887Z,41.56
2019-04-23T07:27:19.131Z,41.86
2019-04-23T07:28:26.759Z,41.05
2019-04-23T07:29:17.836Z,40.85
2019-04-23T07:30:20.913Z,40.65
2019-04-23T07:31:28.424Z,40.75
2019-04-23T07:32:16.800Z,41.56
2019-04-23T07:33:19.090Z,41.14
2019-04-23T07:34:20.308Z,41.66
2019-04-23T07:35:16.069Z,41.14
2019-04-23T07:36:23.922Z,40.94
2019-04-23T07:37:19.063Z,41.14
2019-04-23T07:38:32.737Z,41.64
2019-04-23T07:41:24.907Z,40.91
2019-04-23T07:42:39.536Z,40.41
2019-04-23T07:43:22.489Z,41.12
2019-04-23T07:44:28.159Z,40.22
2019-04-23T07:45:22.270Z,40.41
2019-04-23T07:46:28.620Z,40.41
2019-04-23T07:47:21.834Z,40.51
2019-04-23T07:49:27.396Z,40.69
2019-04-23T07:51:19.510Z,40.49
2019-04-23T07:52:24.316Z,40.39
2019-04-23T07:54:25.327Z,40.49
2019-04-23T07:55:30.118Z,40.89
2019-04-23T07:56:35.769Z,40.29
2019-04-23T07:57:22.019Z,39.98
2019-04-23T07:59:27.766Z,40.39
2019-04-23T08:00:29.695Z,40.27
2019-04-23T08:01:34.236Z,40.77
2019-04-23T08:04:18.331Z,39.44
2019-04-23T08:05:25.167Z,39.14
2019-04-23T08:06:19.288Z,39.12
2019-04-23T08:07:19.961Z,39.02
2019-04-23T08:08:18.235Z,39.93
2019-04-23T08:09:24.624Z,40.13
2019-04-23T08:10:21.013Z,39.22
2019-04-23T08:12:24.966Z,39.02
2019-04-23T08:13:21.568Z,39.22
2019-04-23T08:14:15.379Z,39.73
2019-04-23T08:15:23.050Z,39.61
2019-04-23T08:16:29.372Z,38.82
2019-04-23T08:17:20.975Z,39.42
2019-04-23T08:18:17.833Z,39.62
2019-04-23T08:19:25.300Z,39.12
2019-04-23T08:20:21.240Z,39.52
2019-04-23T08:21:18.131Z,38.41
2019-04-23T08:23:17.823Z,39.10
2019-04-23T08:24:16.977Z,40.01
2019-04-23T08:25:19.196Z,39.30
2019-04-23T08:26:29.907Z,40.11
2019-04-23T08:27:18.591Z,38.80
2019-04-23T08:28:35.476Z,39.61
2019-04-23T08:29:27.733Z,38.70
2019-04-23T08:30:17.992Z,38.59
2019-04-23T08:31:21.921Z,38.70
2019-04-23T08:32:29.203Z,38.59
2019-04-23T08:33:17.237Z,39.73
2019-04-23T08:35:14.188Z,39.10
2019-04-23T08:36:20.118Z,39.61
2019-04-23T08:37:26.985Z,38.90
2019-04-23T08:39:21.514Z,39.08
2019-04-23T08:40:22.833Z,39.59
2019-04-23T08:41:28.505Z,39.48
2019-04-23T08:42:33.125Z,39.08
2019-04-23T08:43:34.844Z,39.77
2019-04-23T08:46:26.879Z,38.98
2019-04-23T08:48:34.199Z,38.29
2019-04-23T08:49:29.028Z,39.70
2019-04-23T08:50:21.769Z,38.98
2019-04-23T08:51:28.277Z,39.28
2019-04-23T08:52:18.660Z,40.21
2019-04-23T08:53:34.546Z,39.89
2019-04-23T08:54:26.699Z,39.28
2019-04-23T08:55:22.743Z,38.98
2019-04-23T08:56:24.837Z,38.48
2019-04-23T08:57:21.197Z,38.56
2019-04-23T08:58:25.202Z,38.96
2019-04-23T08:59:24.896Z,38.86
2019-04-23T09:00:24.764Z,38.68
2019-04-23T09:01:16.885Z,38.86
2019-04-23T09:02:30.862Z,39.69
2019-04-23T09:04:28.837Z,39.18
2019-04-23T09:05:34.259Z,39.18
2019-04-23T09:06:20.322Z,39.17
2019-04-23T09:07:24.727Z,39.06
2019-04-23T09:08:27.298Z,39.25
2019-04-23T09:09:20.014Z,39.97
2019-04-23T09:10:23.051Z,39.75
2019-04-23T09:12:24.948Z,38.34
2019-04-23T09:14:10.265Z,38.42
2019-04-23T09:15:24.013Z,38.82
2019-04-23T09:16:23.725Z,38.32
2019-04-23T09:17:27.711Z,38.12
2019-04-23T09:18:21.329Z,37.62
2019-04-23T09:19:23.304Z,38.00
2019-04-23T09:20:21.877Z,38.22
2019-04-23T09:21:21.297Z,38.22
2019-04-23T09:22:34.752Z,38.02
2019-04-23T09:23:21.086Z,37.62
2019-04-23T09:24:22.380Z,38.73
2019-04-23T09:26:15.728Z,37.41
2019-04-23T09:27:22.693Z,37.92
2019-04-23T09:28:28.008Z,38.10
2019-04-23T09:29:28.425Z,37.70
2019-04-23T09:30:18.760Z,37.40
2019-04-23T09:31:38.619Z,37.49
2019-04-23T09:32:28.406Z,38.10
2019-04-23T09:33:25.865Z,37.49
2019-04-23T09:34:19.335Z,37.40
2019-04-23T09:35:20.779Z,38.20
2019-04-23T09:36:23.830Z,37.19
2019-04-23T09:37:26.553Z,36.99
2019-04-23T09:38:21.906Z,37.29
2019-04-23T09:39:20.510Z,37.21
2019-04-23T09:40:27.443Z,37.40
2019-04-23T09:41:22.255Z,37.29
2019-04-23T09:42:27.638Z,37.31
2019-04-23T09:43:24.254Z,37.11
2019-04-23T09:44:42.198Z,37.82
2019-04-23T09:45:22.738Z,37.90
2019-04-23T09:47:20.133Z,37.38
2019-04-23T09:48:42.005Z,36.77
2019-04-23T09:49:23.985Z,36.66
2019-04-23T09:50:20.199Z,37.16
2019-04-23T09:51:25.797Z,36.35
2019-04-23T09:52:21.801Z,36.55
2019-04-23T09:53:24.994Z,36.35
2019-04-23T09:54:27.251Z,37.26
2019-04-23T09:55:35.475Z,37.26
2019-04-23T09:56:27.140Z,37.16
2019-04-23T09:57:15.984Z,36.66
2019-04-23T09:59:26.441Z,35.43
2019-04-23T10:00:29.720Z,36.15
2019-04-23T10:01:23.625Z,36.66
2019-04-23T10:02:10.433Z,36.35
2019-04-23T10:03:07.590Z,36.37
2019-04-23T10:04:04.088Z,36.17
2019-04-23T10:05:10.422Z,36.27
2019-04-23T10:06:03.234Z,37.48
2019-04-23T10:07:07.211Z,37.29
2019-04-23T10:08:01.745Z,37.27
2019-04-23T10:08:55.586Z,37.18
2019-04-23T10:09:53.435Z,37.49
2019-04-23T10:10:51.354Z,36.79
2019-04-23T10:11:51.161Z,37.40
2019-04-23T10:12:50.869Z,37.09
2019-04-23T10:13:52.608Z,37.40
2019-04-23T10:14:59.212Z,37.19
2019-04-23T10:15:53.569Z,37.48
2019-04-23T10:16:51.669Z,36.39
2019-04-23T10:17:52.099Z,36.77
2019-04-23T10:18:51.047Z,36.17
2019-04-23T10:19:50.942Z,36.17
2019-04-23T10:20:52.173Z,36.57
2019-04-23T10:21:51.421Z,36.98
2019-04-23T10:22:52.483Z,36.76
2019-04-23T10:23:51.668Z,36.74
2019-04-23T10:24:50.936Z,36.44
2019-04-23T10:25:52.072Z,36.44
2019-04-23T10:26:52.170Z,36.55
2019-04-23T10:27:56.563Z,36.33
2019-04-23T10:28:52.030Z,36.74
2019-04-23T10:29:51.871Z,36.54
2019-04-23T10:30:50.935Z,35.83
2019-04-23T10:31:51.405Z,36.33
2019-04-23T10:32:51.667Z,36.24
2019-04-23T10:33:52.241Z,36.33
2019-04-23T10:35:03.590Z,36.42
2019-04-23T10:36:00.368Z,36.54
2019-04-23T10:36:53.454Z,37.24
2019-04-23T10:37:56.842Z,36.64
2019-04-23T10:39:00.599Z,36.54
2019-04-23T10:39:56.680Z,37.23
2019-04-23T10:40:52.280Z,36.62
2019-04-23T10:41:52.657Z,36.20
2019-04-23T10:42:52.276Z,36.62
2019-04-23T10:43:54.098Z,36.32
2019-04-23T10:44:52.523Z,35.39
2019-04-23T10:46:12.026Z,35.60
2019-04-23T10:47:17.741Z,35.50
2019-04-23T10:48:29.494Z,36.40
2019-04-23T10:50:31.639Z,35.39
2019-04-23T10:51:25.030Z,36.29
2019-04-23T10:52:24.895Z,35.68
2019-04-23T10:54:26.294Z,35.58
2019-04-23T10:55:25.351Z,35.58
2019-04-23T10:56:30.574Z,36.20
2019-04-23T10:57:17.111Z,35.68
2019-04-23T10:58:24.914Z,35.50
2019-04-23T10:59:19.963Z,36.60
2019-04-23T11:00:16.084Z,37.10
2019-04-23T11:01:21.081Z,36.32
2019-04-23T11:03:47.343Z,36.22
2019-04-23T11:04:38.492Z,36.50
2019-04-23T11:05:29.917Z,36.10
2019-04-23T11:06:23.840Z,36.30
2019-04-23T11:08:19.034Z,36.38
2019-04-23T11:09:38.628Z,36.38
2019-04-23T11:10:15.621Z,35.78
2019-04-23T11:11:23.569Z,35.48
2019-04-23T11:12:32.995Z,36.49
2019-04-23T11:13:25.840Z,35.68
2019-04-23T11:14:25.355Z,35.68
2019-04-23T11:15:32.310Z,36.18
2019-04-23T11:17:27.027Z,35.77
2019-04-23T11:18:34.146Z,35.97
2019-04-23T11:19:23.654Z,35.86
2019-04-23T11:20:35.363Z,35.86
2019-04-23T11:21:27.441Z,35.66
2019-04-23T11:22:36.219Z,35.66
2019-04-23T11:23:11.557Z,36.05
2019-04-23T11:24:30.604Z,35.55
2019-04-23T11:26:26.391Z,35.57
2019-04-23T11:27:24.447Z,35.57
2019-04-23T11:28:36.278Z,35.78
2019-04-23T11:29:25.719Z,35.98
2019-04-23T11:31:23.836Z,36.36
2019-04-23T11:32:46.734Z,36.36
2019-04-23T11:33:25.664Z,35.66
2019-04-23T11:34:33.697Z,35.97
2019-04-23T11:37:36.356Z,35.44
2019-04-23T11:38:48.617Z,36.07
2019-04-23T11:39:23.317Z,35.77
2019-04-23T11:40:23.169Z,35.66
2019-04-23T11:41:25.185Z,36.36
2019-04-23T11:42:19.636Z,36.45
2019-04-23T11:43:20.516Z,36.35
2019-04-23T11:44:33.341Z,36.15
2019-04-23T11:45:43.067Z,36.13
2019-04-23T11:46:41.236Z,35.93
2019-04-23T11:48:02.529Z,36.13
2019-04-23T11:49:34.839Z,35.63
2019-04-23T11:50:29.568Z,34.71
2019-04-23T11:52:30.056Z,35.51
2019-04-23T11:55:32.775Z,34.69
2019-04-23T11:56:35.404Z,34.61
2019-04-23T11:57:29.958Z,34.59
2019-04-23T11:59:31.768Z,34.59
2019-04-23T12:00:26.480Z,34.59
2019-04-23T12:01:37.418Z,35.19
2019-04-23T12:02:26.852Z,35.30
2019-04-23T12:03:14.281Z,34.38
2019-04-23T12:04:40.229Z,33.98
2019-04-23T12:05:29.838Z,33.66
2019-04-23T12:07:22.672Z,34.05
2019-04-23T12:08:25.182Z,33.04
2019-04-23T12:09:26.024Z,33.66
2019-04-23T12:10:29.984Z,33.59
2019-04-23T12:11:48.986Z,32.74
2019-04-23T12:12:25.114Z,31.70
2019-04-23T12:13:32.178Z,30.96
2019-04-23T12:14:32.811Z,31.78
2019-04-23T12:15:26.683Z,31.46
2019-04-23T12:16:24.213Z,30.92
2019-04-23T12:17:24.923Z,29.63
2019-04-23T12:18:25.647Z,29.39
2019-04-23T12:19:44.339Z,30.29
2019-04-23T12:20:33.200Z,28.87
2019-04-23T12:21:22.001Z,28.46
2019-04-23T12:22:24.515Z,28.23
2019-04-23T12:23:31.692Z,27.12
2019-04-23T12:24:28.217Z,27.11
2019-04-23T12:25:27.855Z,26.22
2019-04-23T12:26:29.843Z,25.71
2019-04-23T12:27:23.508Z,25.62
2019-04-23T12:28:20.747Z,25.81
2019-04-23T12:29:27.656Z,26.31
2019-04-23T12:30:25.302Z,25.90
2019-04-23T12:31:26.550Z,26.28
2019-04-23T12:32:35.596Z,26.08
2019-04-23T12:34:25.722Z,27.04
2019-04-23T12:35:17.716Z,26.62
2019-04-23T12:36:28.272Z,26.90
2019-04-23T12:37:27.017Z,26.49
2019-04-23T12:39:18.924Z,25.38
2019-04-23T12:40:19.857Z,25.19
2019-04-23T12:41:26.613Z,25.84
2019-04-23T12:42:43.378Z,27.26
2019-04-23T12:44:22.512Z,29.90
2019-04-23T12:46:26.031Z,27.72
2019-04-23T12:47:37.706Z,26.81
2019-04-23T12:48:28.194Z,26.92
2019-04-23T12:49:34.750Z,28.56
2019-04-23T12:50:42.368Z,28.39
2019-04-23T12:51:26.376Z,29.71
2019-04-23T12:52:19.692Z,30.55
2019-04-23T12:53:25.593Z,31.35
2019-04-23T12:54:31.911Z,29.63
2019-04-23T12:55:22.027Z,31.15
2019-04-23T12:56:36.233Z,30.87
2019-04-23T12:57:29.672Z,31.75
2019-04-23T12:58:22.197Z,31.45
2019-04-23T12:59:17.142Z,29.99
2019-04-23T13:00:23.195Z,30.01
2019-04-23T13:01:25.154Z,31.12
2019-04-23T13:02:25.784Z,31.46
2019-04-23T13:03:31.464Z,31.18
2019-04-23T13:04:17.921Z,31.40
2019-04-23T13:05:15.660Z,31.99
2019-04-23T13:06:17.031Z,30.63
2019-04-23T13:07:29.259Z,30.74
2019-04-23T13:09:33.218Z,31.13
2019-04-23T13:10:22.225Z,31.46
2019-04-23T13:11:21.592Z,31.58
2019-04-23T13:12:29.307Z,33.29
2019-04-23T13:13:25.705Z,33.51
2019-04-23T13:14:29.472Z,34.41
2019-04-23T13:15:15.845Z,33.73
2019-04-23T13:16:25.422Z,34.14
2019-04-23T13:18:17.499Z,33.62
2019-04-23T13:19:37.373Z,33.53
2019-04-23T13:21:38.358Z,33.43
2019-04-23T13:22:25.099Z,33.73
2019-04-23T13:24:15.958Z,33.61
2019-04-23T13:25:19.606Z,33.11
2019-04-23T13:26:30.753Z,32.88
2019-04-23T13:27:23.883Z,32.89
2019-04-23T13:29:28.983Z,33.31
2019-04-23T13:30:23.208Z,33.51
2019-04-23T13:32:21.651Z,33.59
2019-04-23T13:33:30.754Z,31.98
2019-04-23T13:34:23.034Z,32.46
2019-04-23T13:35:38.088Z,31.43
2019-04-23T13:37:20.227Z,31.24
2019-04-23T13:39:20.238Z,30.91
2019-04-23T13:40:26.070Z,30.49
2019-04-23T13:41:33.574Z,31.21
2019-04-23T13:42:22.552Z,31.12
2019-04-23T13:43:30.374Z,31.13
2019-04-23T13:44:17.593Z,31.40
2019-04-23T13:45:36.350Z,29.95
2019-04-23T13:46:28.771Z,30.58
2019-04-23T13:47:36.058Z,31.70
2019-04-23T13:49:17.982Z,31.75
2019-04-23T13:50:35.551Z,32.17
2019-04-23T13:51:22.403Z,32.48
2019-04-23T13:52:46.380Z,31.72
2019-04-23T13:54:28.158Z,30.92
2019-04-23T13:55:28.278Z,31.24
2019-04-23T13:56:23.802Z,31.87
2019-04-23T13:57:49.779Z,32.06
2019-04-23T13:58:22.570Z,33.08
2019-04-23T13:59:21.730Z,33.50
2019-04-23T14:00:26.944Z,32.70
2019-04-23T14:01:28.038Z,33.21
2019-04-23T14:02:31.766Z,33.62
2019-04-23T14:03:20.696Z,34.73
2019-04-23T14:04:32.856Z,34.24
2019-04-23T14:05:22.065Z,35.05
2019-04-23T14:06:20.807Z,35.25
2019-04-23T14:07:26.749Z,35.44
2019-04-23T14:08:22.850Z,35.25
2019-04-23T14:09:28.478Z,35.25
2019-04-23T14:10:36.278Z,34.44
2019-04-23T14:11:24.847Z,34.76
2019-04-23T14:12:09.165Z,34.86
2019-04-23T14:14:25.002Z,35.58
2019-04-23T14:15:28.582Z,36.38
2019-04-23T14:17:26.915Z,36.20
2019-04-23T14:18:48.438Z,36.10
2019-04-23T14:19:06.830Z,37.42
2019-04-23T14:22:46.682Z,37.94
2019-04-23T14:23:25.746Z,38.56
2019-04-23T14:24:38.051Z,39.86
2019-04-23T14:27:19.815Z,39.78
2019-04-23T14:28:25.497Z,40.28
2019-04-23T14:29:26.389Z,40.19
2019-04-23T14:30:23.384Z,40.17
2019-04-23T14:32:47.026Z,40.48
2019-04-23T14:35:32.203Z,41.09
2019-04-23T14:36:21.553Z,40.70
2019-04-23T14:37:16.841Z,41.31
2019-04-23T14:39:18.801Z,41.91
2019-04-23T14:41:23.583Z,42.11
2019-04-23T14:43:22.522Z,42.24
2019-04-23T14:44:12.936Z,42.44
2019-04-23T14:45:29.517Z,42.44
2019-04-23T14:47:24.065Z,43.04
2019-04-23T14:48:31.214Z,43.34
2019-04-23T14:49:20.464Z,43.04
2019-04-23T14:51:25.628Z,42.94
2019-04-23T14:52:21.706Z,43.96
2019-04-23T14:53:18.183Z,44.47
2019-04-23T14:54:23.397Z,43.99
2019-04-23T14:56:16.989Z,44.19
2019-04-23T14:57:24.772Z,43.88
2019-04-23T14:58:27.774Z,44.11
2019-04-23T14:59:23.779Z,44.61
2019-04-23T15:00:29.121Z,44.81
2019-04-23T15:02:23.036Z,44.01
2019-04-23T15:04:11.095Z,44.83
2019-04-23T15:05:17.420Z,44.53
2019-04-23T15:07:24.282Z,45.14
2019-04-23T15:08:24.918Z,44.83
2019-04-23T15:09:22.963Z,45.24
2019-04-23T15:10:26.405Z,45.24
2019-04-23T15:11:27.922Z,45.64
2019-04-23T15:13:22.702Z,46.06
2019-04-23T15:14:16.913Z,46.17
2019-04-23T15:15:19.645Z,45.97
2019-04-23T15:17:20.044Z,46.37
2019-04-23T15:18:25.258Z,46.26
2019-04-23T15:20:17.280Z,46.49
2019-04-23T15:21:43.330Z,46.09
2019-04-23T15:23:33.227Z,47.09
2019-04-23T15:24:19.433Z,46.79
2019-04-23T15:25:26.412Z,46.69
2019-04-23T15:27:22.328Z,46.89
2019-04-23T15:28:00.160Z,46.59
2019-04-23T15:28:08.991Z,46.89
2019-04-23T15:28:58.524Z,46.89
2019-04-23T15:30:06.939Z,46.99
2019-04-23T15:32:18.715Z,48.00
2019-04-23T15:33:35.044Z,48.00
2019-04-23T15:35:23.528Z,48.83
2019-04-23T15:37:32.967Z,48.63
2019-04-23T15:38:33.913Z,49.13
2019-04-23T15:40:20.910Z,49.74